createdAt,value
2017-05-18T00:00:54.830Z,0
2017-05-18T00:02:05.845Z,0
2017-05-18T00:03:16.870Z,0
2017-05-18T00:04:27.958Z,0
2017-05-18T00:05:39.028Z,0
2017-05-18T00:06:50.249Z,0
2017-05-18T00:08:01.307Z,0
2017-05-18T00:09:12.328Z,0
2017-05-18T00:10:23.343Z,0
2017-05-18T00:11:34.415Z,0
2017-05-18T00:12:45.645Z,0
2017-05-18T00:13:56.691Z,0
2017-05-18T00:15:07.761Z,0
2017-05-18T00:16:18.769Z,0
2017-05-18T00:17:29.830Z,0
2017-05-18T00:18:40.843Z,0
2017-05-18T00:19:52.063Z,0
2017-05-18T00:21:03.096Z,0
2017-05-18T00:22:14.113Z,0
2017-05-18T00:23:25.185Z,0
2017-05-18T00:24:36.210Z,0
2017-05-18T00:25:47.231Z,0
2017-05-18T00:26:58.246Z,0
2017-05-18T00:28:09.268Z,0
2017-05-18T00:29:20.331Z,0
2017-05-18T00:30:31.348Z,0
2017-05-18T00:31:42.362Z,0
2017-05-18T00:32:53.385Z,0
2017-05-18T00:34:04.398Z,0
2017-05-18T00:35:15.446Z,0
2017-05-18T00:36:26.466Z,0
2017-05-18T00:37:37.690Z,0
2017-05-18T00:38:48.920Z,0
2017-05-18T00:39:59.940Z,0
2017-05-18T00:41:11.000Z,0
2017-05-18T00:42:22.032Z,0
2017-05-18T00:43:33.056Z,0
2017-05-18T00:44:44.136Z,0
2017-05-18T00:45:55.159Z,0
2017-05-18T00:47:06.223Z,0
2017-05-18T00:48:17.225Z,0
2017-05-18T00:49:28.665Z,0
2017-05-18T00:50:39.688Z,0
2017-05-18T00:51:50.707Z,0
2017-05-18T00:53:01.777Z,0
2017-05-18T00:54:12.809Z,0
2017-05-18T00:55:23.830Z,0
2017-05-18T00:56:34.842Z,0
2017-05-18T00:57:45.872Z,0
2017-05-18T00:58:56.940Z,0
2017-05-18T01:00:08.165Z,0
2017-05-18T01:01:19.177Z,0
2017-05-18T01:02:30.198Z,0
2017-05-18T01:03:41.217Z,0
2017-05-18T01:04:52.348Z,0
2017-05-18T01:06:03.377Z,0
2017-05-18T01:07:14.392Z,0
2017-05-18T01:08:25.413Z,0
2017-05-18T01:09:36.438Z,0
2017-05-18T01:10:47.643Z,0
2017-05-18T01:11:58.656Z,0
2017-05-18T01:13:09.683Z,0
2017-05-18T01:14:20.692Z,0
2017-05-18T01:15:31.754Z,0
2017-05-18T01:16:42.771Z,0
2017-05-18T01:17:54.005Z,0
2017-05-18T01:19:05.028Z,0
2017-05-18T01:20:16.057Z,0
2017-05-18T01:21:27.343Z,0
2017-05-18T01:22:38.377Z,0
2017-05-18T01:23:49.658Z,0
2017-05-18T01:25:00.883Z,0
2017-05-18T01:26:11.910Z,0
2017-05-18T01:27:22.982Z,0
2017-05-18T01:28:34.015Z,0
2017-05-18T01:29:45.226Z,0
2017-05-18T01:30:56.439Z,0
2017-05-18T01:32:07.649Z,0
2017-05-18T01:33:18.711Z,0
2017-05-18T01:34:29.745Z,0
2017-05-18T01:35:40.765Z,0
2017-05-18T01:36:52.192Z,0
2017-05-18T01:38:03.423Z,0
2017-05-18T01:39:14.490Z,0
2017-05-18T01:40:25.509Z,0
2017-05-18T01:41:36.718Z,0
2017-05-18T01:42:47.729Z,0
2017-05-18T01:43:58.748Z,0
2017-05-18T01:45:09.819Z,0
2017-05-18T01:46:20.833Z,0
2017-05-18T01:47:31.849Z,0
2017-05-18T01:48:42.869Z,0
2017-05-18T01:49:53.885Z,0
2017-05-18T01:51:04.966Z,0
2017-05-18T01:52:15.987Z,0
2017-05-18T01:53:26.999Z,0
2017-05-18T01:54:38.026Z,0
2017-05-18T01:55:49.306Z,0
2017-05-18T01:57:00.380Z,0
2017-05-18T01:58:11.404Z,0
2017-05-18T01:59:22.426Z,0
2017-05-18T02:00:33.435Z,0
2017-05-18T02:01:44.905Z,0
2017-05-18T02:02:56.143Z,0
2017-05-18T02:04:07.177Z,0
2017-05-18T02:05:18.205Z,0
2017-05-18T02:06:29.434Z,0
2017-05-18T02:07:40.507Z,0
2017-05-18T02:08:51.527Z,0
2017-05-18T02:10:02.769Z,0
2017-05-18T02:11:13.794Z,0
2017-05-18T02:12:24.802Z,0
2017-05-18T02:13:36.092Z,0
2017-05-18T02:14:47.108Z,0
2017-05-18T02:15:58.323Z,0
2017-05-18T02:17:09.330Z,0
2017-05-18T02:18:20.358Z,0
2017-05-18T02:19:31.422Z,0
2017-05-18T02:20:42.441Z,0
2017-05-18T02:21:53.458Z,0
2017-05-18T02:23:04.689Z,0
2017-05-18T02:24:15.695Z,0
2017-05-18T02:25:26.764Z,0
2017-05-18T02:26:37.996Z,0
2017-05-18T02:27:49.023Z,0
2017-05-18T02:29:00.251Z,0
2017-05-18T02:30:11.270Z,0
2017-05-18T02:31:22.342Z,0
2017-05-18T02:32:33.363Z,0
2017-05-18T02:33:44.571Z,0
2017-05-18T02:34:55.590Z,0
2017-05-18T02:36:06.602Z,0
2017-05-18T02:37:17.864Z,0
2017-05-18T02:38:28.893Z,0
2017-05-18T02:39:39.923Z,0
2017-05-18T02:40:50.985Z,0
2017-05-18T02:42:01.994Z,0
2017-05-18T02:43:13.261Z,0
2017-05-18T02:44:24.277Z,0
2017-05-18T02:45:35.295Z,0
2017-05-18T02:46:46.706Z,0
2017-05-18T02:47:57.927Z,0
2017-05-18T02:49:09.196Z,0
2017-05-18T02:50:20.249Z,0
2017-05-18T02:51:31.455Z,0
2017-05-18T02:52:42.473Z,0
2017-05-18T02:53:53.493Z,0
2017-05-18T02:55:04.616Z,0
2017-05-18T02:56:15.642Z,0
2017-05-18T02:57:26.700Z,0
2017-05-18T02:58:37.718Z,0
2017-05-18T02:59:48.939Z,0
2017-05-18T03:01:00.152Z,0
2017-05-18T03:02:11.164Z,0
2017-05-18T03:03:22.193Z,0
2017-05-18T03:04:33.208Z,0
2017-05-18T03:05:44.316Z,0
2017-05-18T03:06:55.538Z,0
2017-05-18T03:08:06.552Z,0
2017-05-18T03:09:17.582Z,0
2017-05-18T03:10:28.601Z,0
2017-05-18T03:11:39.667Z,0
2017-05-18T03:12:50.688Z,0
2017-05-18T03:14:01.719Z,0
2017-05-18T03:15:12.932Z,0
2017-05-18T03:16:23.939Z,0
2017-05-18T03:17:35.009Z,5
2017-05-18T03:18:46.032Z,5
2017-05-18T03:19:57.044Z,5
2017-05-18T03:21:08.060Z,5
2017-05-18T03:22:19.069Z,5
2017-05-18T03:23:30.151Z,0
2017-05-18T03:24:41.164Z,5
2017-05-18T03:25:52.202Z,5
2017-05-18T03:27:03.215Z,5
2017-05-18T03:28:14.695Z,5
2017-05-18T03:29:25.772Z,5
2017-05-18T03:30:36.787Z,5
2017-05-18T03:31:47.996Z,5
2017-05-18T03:32:59.013Z,5
2017-05-18T03:34:10.028Z,5
2017-05-18T03:35:21.094Z,10
2017-05-18T03:36:32.107Z,10
2017-05-18T03:37:43.128Z,10
2017-05-18T03:38:54.143Z,10
2017-05-18T03:40:05.370Z,15
2017-05-18T03:41:16.439Z,15
2017-05-18T03:42:27.449Z,15
2017-05-18T03:43:38.462Z,15
2017-05-18T03:44:49.676Z,20
2017-05-18T03:46:00.708Z,20
2017-05-18T03:47:11.778Z,20
2017-05-18T03:48:22.803Z,25
2017-05-18T03:49:33.832Z,25
2017-05-18T03:50:44.854Z,25
2017-05-18T03:51:55.878Z,30
2017-05-18T03:53:07.005Z,30
2017-05-18T03:54:18.028Z,35
2017-05-18T03:55:29.101Z,35
2017-05-18T03:56:40.320Z,40
2017-05-18T03:57:51.547Z,40
2017-05-18T03:59:02.619Z,45
2017-05-18T04:00:13.638Z,45
2017-05-18T04:01:24.653Z,45
2017-05-18T04:02:35.663Z,50
2017-05-18T04:03:46.898Z,60
2017-05-18T04:04:57.966Z,55
2017-05-18T04:06:09.389Z,60
2017-05-18T04:07:20.612Z,60
2017-05-18T04:08:31.634Z,65
2017-05-18T04:09:42.651Z,70
2017-05-18T04:10:53.669Z,70
2017-05-18T04:12:04.883Z,75
2017-05-18T04:13:15.894Z,80
2017-05-18T04:14:26.977Z,90
2017-05-18T04:15:38.058Z,90
2017-05-18T04:16:49.275Z,95
2017-05-18T04:18:00.287Z,95
2017-05-18T04:19:11.293Z,130
2017-05-18T04:20:22.504Z,210
2017-05-18T04:21:33.580Z,290
2017-05-18T04:22:44.588Z,380
2017-05-18T04:23:55.609Z,415
2017-05-18T04:25:06.620Z,470
2017-05-18T04:26:17.845Z,495
2017-05-18T04:27:28.920Z,510
2017-05-18T04:28:39.948Z,535
2017-05-18T04:29:50.974Z,560
2017-05-18T04:31:02.189Z,580
2017-05-18T04:32:13.416Z,510
2017-05-18T04:33:24.475Z,455
2017-05-18T04:34:35.495Z,360
2017-05-18T04:35:46.719Z,465
2017-05-18T04:36:57.747Z,390
2017-05-18T04:38:08.822Z,400
2017-05-18T04:39:20.097Z,275
2017-05-18T04:40:31.512Z,285
2017-05-18T04:41:42.535Z,430
2017-05-18T04:42:53.763Z,505
2017-05-18T04:44:04.793Z,480
2017-05-18T04:45:15.870Z,535
2017-05-18T04:46:26.891Z,585
2017-05-18T04:47:38.114Z,610
2017-05-18T04:48:49.140Z,690
2017-05-18T04:50:00.175Z,670
2017-05-18T04:51:11.270Z,660
2017-05-18T04:52:22.299Z,510
2017-05-18T04:53:33.322Z,465
2017-05-18T04:54:44.355Z,430
2017-05-18T04:55:55.373Z,605
2017-05-18T04:57:06.636Z,800
2017-05-18T04:58:17.655Z,915
2017-05-18T04:59:28.673Z,945
2017-05-18T05:00:39.717Z,930
2017-05-18T05:01:50.744Z,890
2017-05-18T05:03:01.816Z,680
2017-05-18T05:04:12.840Z,590
2017-05-18T05:05:24.104Z,815
2017-05-18T05:06:35.175Z,910
2017-05-18T05:07:46.205Z,925
2017-05-18T05:08:57.276Z,840
2017-05-18T05:10:08.527Z,905
2017-05-18T05:11:19.551Z,1040
2017-05-18T05:12:30.776Z,1125
2017-05-18T05:13:42.004Z,1210
2017-05-18T05:14:53.082Z,1185
2017-05-18T05:16:04.110Z,1165
2017-05-18T05:17:15.135Z,1110
2017-05-18T05:18:26.163Z,1105
2017-05-18T05:19:37.184Z,1140
2017-05-18T05:20:48.210Z,1100
2017-05-18T05:21:59.228Z,865
2017-05-18T05:23:10.266Z,855
2017-05-18T05:24:21.337Z,680
2017-05-18T05:25:32.408Z,445
2017-05-18T05:26:43.435Z,355
2017-05-18T05:27:54.667Z,300
2017-05-18T05:29:05.707Z,295
2017-05-18T05:30:16.732Z,305
2017-05-18T05:31:27.803Z,310
2017-05-18T05:32:38.824Z,330
2017-05-18T05:33:49.846Z,350
2017-05-18T05:35:00.870Z,360
2017-05-18T05:36:11.956Z,365
2017-05-18T05:37:23.436Z,380
2017-05-18T05:38:34.470Z,400
2017-05-18T05:39:45.492Z,380
2017-05-18T05:40:56.517Z,435
2017-05-18T05:42:07.542Z,360
2017-05-18T05:43:18.615Z,375
2017-05-18T05:44:29.853Z,375
2017-05-18T05:45:40.882Z,435
2017-05-18T05:46:51.917Z,425
2017-05-18T05:48:02.940Z,450
2017-05-18T05:49:14.010Z,395
2017-05-18T05:50:25.226Z,475
2017-05-18T05:51:36.444Z,575
2017-05-18T05:52:47.471Z,615
2017-05-18T05:53:58.494Z,825
2017-05-18T05:55:09.567Z,985
2017-05-18T05:56:20.588Z,440
2017-05-18T05:57:31.605Z,1025
2017-05-18T05:58:42.631Z,1245
2017-05-18T05:59:53.858Z,890
2017-05-18T06:01:04.884Z,1200
2017-05-18T06:02:15.906Z,1015
2017-05-18T06:03:26.923Z,1260
2017-05-18T06:04:38.196Z,1105
2017-05-18T06:05:49.367Z,940
2017-05-18T06:07:00.388Z,1095
2017-05-18T06:08:11.422Z,895
2017-05-18T06:09:22.463Z,875
2017-05-18T06:10:33.497Z,945
2017-05-18T06:11:44.776Z,650
2017-05-18T06:12:55.797Z,760
2017-05-18T06:14:06.821Z,950
2017-05-18T06:15:17.841Z,640
2017-05-18T06:16:28.858Z,645
2017-05-18T06:17:39.949Z,505
2017-05-18T06:18:50.989Z,740
2017-05-18T06:20:02.011Z,1100
2017-05-18T06:21:13.037Z,1090
2017-05-18T06:22:24.054Z,1140
2017-05-18T06:23:35.122Z,830
2017-05-18T06:24:46.155Z,1010
2017-05-18T06:25:57.178Z,1005
2017-05-18T06:27:08.221Z,1140
2017-05-18T06:28:19.247Z,1260
2017-05-18T06:29:30.328Z,1305
2017-05-18T06:30:41.347Z,1595
2017-05-18T06:31:52.377Z,1675
2017-05-18T06:33:03.608Z,1250
2017-05-18T06:34:14.631Z,925
2017-05-18T06:35:25.716Z,595
2017-05-18T06:36:36.947Z,570
2017-05-18T06:37:48.168Z,575
2017-05-18T06:38:59.200Z,550
2017-05-18T06:40:10.269Z,570
2017-05-18T06:41:21.341Z,785
2017-05-18T06:42:32.361Z,870
2017-05-18T06:43:43.398Z,1475
2017-05-18T06:44:54.630Z,1210
2017-05-18T06:46:05.664Z,725
2017-05-18T06:47:16.836Z,1245
2017-05-18T06:48:27.861Z,510
2017-05-18T06:49:38.882Z,460
2017-05-18T06:50:50.103Z,440
2017-05-18T06:52:01.132Z,460
2017-05-18T06:53:12.215Z,535
2017-05-18T06:54:23.236Z,755
2017-05-18T06:55:34.268Z,500
2017-05-18T06:56:45.294Z,515
2017-05-18T06:57:56.311Z,710
2017-05-18T06:59:07.477Z,585
2017-05-18T07:00:18.508Z,620
2017-05-18T07:01:29.554Z,1545
2017-05-18T07:02:40.787Z,1920
2017-05-18T07:03:51.817Z,1550
2017-05-18T07:05:03.003Z,2065
2017-05-18T07:06:14.033Z,1560
2017-05-18T07:07:25.054Z,1740
2017-05-18T07:08:36.081Z,960
2017-05-18T07:09:47.104Z,630
2017-05-18T07:10:58.127Z,550
2017-05-18T07:12:09.342Z,560
2017-05-18T07:13:20.383Z,565
2017-05-18T07:14:31.417Z,565
2017-05-18T07:15:42.493Z,570
2017-05-18T07:16:53.531Z,580
2017-05-18T07:18:04.569Z,705
2017-05-18T07:19:15.583Z,1065
2017-05-18T07:20:26.604Z,875
2017-05-18T07:21:37.677Z,1365
2017-05-18T07:22:48.700Z,1530
2017-05-18T07:23:59.937Z,1905
2017-05-18T07:25:10.950Z,670
2017-05-18T07:26:22.370Z,485
2017-05-18T07:27:33.458Z,425
2017-05-18T07:28:44.489Z,385
2017-05-18T07:29:55.528Z,350
2017-05-18T07:31:06.760Z,325
2017-05-18T07:32:17.977Z,305
2017-05-18T07:33:29.258Z,285
2017-05-18T07:34:40.273Z,260
2017-05-18T07:35:51.504Z,255
2017-05-18T07:37:02.525Z,235
2017-05-18T07:38:13.563Z,210
2017-05-18T07:39:24.636Z,180
2017-05-18T07:40:35.662Z,155
2017-05-18T07:41:46.678Z,145
2017-05-18T07:42:57.705Z,145
2017-05-18T07:44:08.728Z,145
2017-05-18T07:45:20.016Z,140
2017-05-18T07:46:31.041Z,135
2017-05-18T07:47:42.272Z,130
2017-05-18T07:48:53.285Z,130
2017-05-18T07:50:04.315Z,125
2017-05-18T07:51:15.379Z,130
2017-05-18T07:52:26.404Z,130
2017-05-18T07:53:37.424Z,140
2017-05-18T07:54:48.454Z,170
2017-05-18T07:55:59.473Z,220
2017-05-18T07:57:10.742Z,275
2017-05-18T07:58:21.953Z,345
2017-05-18T07:59:32.968Z,420
2017-05-18T08:00:43.992Z,500
2017-05-18T08:01:55.217Z,565
2017-05-18T08:03:06.283Z,1325
2017-05-18T08:04:17.506Z,550
2017-05-18T08:05:28.523Z,475
2017-05-18T08:06:39.550Z,410
2017-05-18T08:07:50.585Z,380
2017-05-18T08:09:01.705Z,370
2017-05-18T08:10:12.773Z,345
2017-05-18T08:11:23.835Z,350
2017-05-18T08:12:34.861Z,360
2017-05-18T08:13:45.896Z,360
2017-05-18T08:14:56.975Z,350
2017-05-18T08:16:07.996Z,345
2017-05-18T08:17:19.274Z,355
2017-05-18T08:18:30.299Z,370
2017-05-18T08:19:41.529Z,355
2017-05-18T08:20:52.746Z,320
2017-05-18T08:22:03.762Z,275
2017-05-18T08:23:14.787Z,235
2017-05-18T08:24:26.019Z,210
2017-05-18T08:25:37.083Z,210
2017-05-18T08:26:48.108Z,215
2017-05-18T08:27:59.116Z,225
2017-05-18T08:29:10.146Z,245
2017-05-18T08:30:21.378Z,260
2017-05-18T08:31:32.643Z,275
2017-05-18T08:32:43.670Z,320
2017-05-18T08:33:54.891Z,435
2017-05-18T08:35:06.118Z,450
2017-05-18T08:36:17.169Z,505
2017-05-18T08:37:28.245Z,505
2017-05-18T08:38:39.463Z,370
2017-05-18T08:39:50.481Z,355
2017-05-18T08:41:01.507Z,360
2017-05-18T08:42:12.520Z,400
2017-05-18T08:43:23.590Z,505
2017-05-18T08:44:34.817Z,560
2017-05-18T08:45:46.039Z,615
2017-05-18T08:46:57.065Z,685
2017-05-18T08:48:08.101Z,725
2017-05-18T08:49:19.180Z,845
2017-05-18T08:50:30.193Z,1070
2017-05-18T08:51:41.200Z,1330
2017-05-18T08:52:52.631Z,1335
2017-05-18T08:54:03.666Z,860
2017-05-18T08:55:14.935Z,920
2017-05-18T08:56:26.017Z,1180
2017-05-18T08:57:37.105Z,1355
2017-05-18T08:58:48.129Z,960
2017-05-18T08:59:59.347Z,555
2017-05-18T09:01:10.467Z,465
2017-05-18T09:02:21.494Z,410
2017-05-18T09:03:32.514Z,395
2017-05-18T09:04:43.549Z,415
2017-05-18T09:05:54.580Z,445
2017-05-18T09:07:05.652Z,485
2017-05-18T09:08:16.873Z,540
2017-05-18T09:09:27.914Z,595
2017-05-18T09:10:38.933Z,705
2017-05-18T09:11:50.158Z,845
2017-05-18T09:13:01.231Z,980
2017-05-18T09:14:12.256Z,1660
2017-05-18T09:15:23.293Z,1670
2017-05-18T09:16:34.514Z,1395
2017-05-18T09:17:45.543Z,640
2017-05-18T09:18:56.628Z,505
2017-05-18T09:20:07.657Z,590
2017-05-18T09:21:18.676Z,735
2017-05-18T09:22:29.738Z,845
2017-05-18T09:23:40.958Z,1125
2017-05-18T09:24:52.055Z,785
2017-05-18T09:26:03.287Z,655
2017-05-18T09:27:14.307Z,660
2017-05-18T09:28:25.338Z,700
2017-05-18T09:29:36.360Z,710
2017-05-18T09:30:47.584Z,810
2017-05-18T09:31:58.825Z,755
2017-05-18T09:33:09.855Z,770
2017-05-18T09:34:21.086Z,730
2017-05-18T09:35:32.152Z,680
2017-05-18T09:36:43.174Z,720
2017-05-18T09:37:54.213Z,790
2017-05-18T09:39:05.291Z,800
2017-05-18T09:40:16.325Z,675
2017-05-18T09:41:27.598Z,785
2017-05-18T09:42:38.716Z,780
2017-05-18T09:43:49.733Z,760
2017-05-18T09:45:00.762Z,835
2017-05-18T09:46:11.796Z,885
2017-05-18T09:47:22.881Z,800
2017-05-18T09:48:34.128Z,695
2017-05-18T09:49:45.155Z,630
2017-05-18T09:50:56.200Z,715
2017-05-18T09:52:07.237Z,725
2017-05-18T09:53:18.303Z,780
2017-05-18T09:54:29.532Z,925
2017-05-18T09:55:40.551Z,1590
2017-05-18T09:56:51.575Z,1285
2017-05-18T09:58:02.797Z,1460
2017-05-18T09:59:13.883Z,1035
2017-05-18T10:00:24.909Z,800
2017-05-18T10:01:36.141Z,775
2017-05-18T10:02:47.236Z,825
2017-05-18T10:03:58.278Z,615
2017-05-18T10:05:09.367Z,535
2017-05-18T10:06:20.415Z,570
2017-05-18T10:07:31.455Z,730
2017-05-18T10:08:42.493Z,845
2017-05-18T10:09:53.528Z,700
2017-05-18T10:11:04.761Z,575
2017-05-18T10:12:15.774Z,560
2017-05-18T10:13:26.810Z,590
2017-05-18T10:14:37.833Z,555
2017-05-18T10:15:48.907Z,505
2017-05-18T10:17:00.127Z,530
2017-05-18T10:18:11.154Z,685
2017-05-18T10:19:22.411Z,840
2017-05-18T10:20:33.422Z,510
2017-05-18T10:21:44.485Z,375
2017-05-18T10:22:55.520Z,300
2017-05-18T10:24:06.755Z,260
2017-05-18T10:25:18.024Z,270
2017-05-18T10:26:29.043Z,290
2017-05-18T10:27:40.123Z,320
2017-05-18T10:28:51.217Z,350
2017-05-18T10:30:02.248Z,390
2017-05-18T10:31:13.504Z,460
2017-05-18T10:32:24.535Z,505
2017-05-18T10:33:35.613Z,540
2017-05-18T10:34:46.633Z,570
2017-05-18T10:35:57.666Z,640
2017-05-18T10:37:08.698Z,640
2017-05-18T10:38:19.720Z,735
2017-05-18T10:39:30.799Z,780
2017-05-18T10:40:41.822Z,830
2017-05-18T10:41:53.040Z,870
2017-05-18T10:43:04.068Z,760
2017-05-18T10:44:15.092Z,675
2017-05-18T10:45:26.163Z,665
2017-05-18T10:46:37.195Z,770
2017-05-18T10:47:48.229Z,745
2017-05-18T10:48:59.261Z,640
2017-05-18T10:50:10.295Z,590
2017-05-18T10:51:21.374Z,535
2017-05-18T10:52:32.461Z,620
2017-05-18T10:53:43.498Z,765
2017-05-18T10:54:54.531Z,745
2017-05-18T10:56:05.764Z,585
2017-05-18T10:57:17.033Z,605
2017-05-18T10:58:28.065Z,540
2017-05-18T10:59:39.087Z,480
2017-05-18T11:00:50.111Z,410
2017-05-18T11:02:01.131Z,365
2017-05-18T11:03:12.275Z,345
2017-05-18T11:04:23.312Z,370
2017-05-18T11:05:34.530Z,410
2017-05-18T11:06:45.561Z,405
2017-05-18T11:07:56.597Z,385
2017-05-18T11:09:07.684Z,355
2017-05-18T11:10:18.719Z,335
2017-05-18T11:11:29.744Z,310
2017-05-18T11:12:40.779Z,290
2017-05-18T11:13:51.819Z,275
2017-05-18T11:15:02.912Z,275
2017-05-18T11:16:14.148Z,280
2017-05-18T11:17:25.173Z,275
2017-05-18T11:18:36.205Z,275
2017-05-18T11:19:47.434Z,290
2017-05-18T11:20:58.453Z,310
2017-05-18T11:22:09.474Z,320
2017-05-18T11:23:20.705Z,325
2017-05-18T11:24:31.726Z,320
2017-05-18T11:25:42.803Z,305
2017-05-18T11:26:53.836Z,290
2017-05-18T11:28:04.886Z,295
2017-05-18T11:29:16.112Z,315
2017-05-18T11:30:27.338Z,350
2017-05-18T11:31:38.416Z,365
2017-05-18T11:32:49.647Z,360
2017-05-18T11:34:00.866Z,345
2017-05-18T11:35:11.903Z,320
2017-05-18T11:36:22.937Z,310
2017-05-18T11:37:34.263Z,305
2017-05-18T11:38:45.285Z,310
2017-05-18T11:39:56.317Z,315
2017-05-18T11:41:07.344Z,325
2017-05-18T11:42:18.361Z,320
2017-05-18T11:43:29.638Z,335
2017-05-18T11:44:40.653Z,360
2017-05-18T11:45:51.673Z,385
2017-05-18T11:47:02.702Z,400
2017-05-18T11:48:13.796Z,410
2017-05-18T11:49:24.954Z,400
2017-05-18T11:50:36.201Z,380
2017-05-18T11:51:47.227Z,355
2017-05-18T11:52:58.253Z,350
2017-05-18T11:54:09.283Z,345
2017-05-18T11:55:20.360Z,340
2017-05-18T11:56:31.386Z,310
2017-05-18T11:57:42.414Z,275
2017-05-18T11:58:53.440Z,250
2017-05-18T12:00:04.460Z,235
2017-05-18T12:01:15.522Z,205
2017-05-18T12:02:26.737Z,185
2017-05-18T12:03:37.768Z,170
2017-05-18T12:04:48.989Z,165
2017-05-18T12:06:00.019Z,165
2017-05-18T12:07:11.308Z,170
2017-05-18T12:08:22.338Z,170
2017-05-18T12:09:33.368Z,165
2017-05-18T12:10:44.389Z,160
2017-05-18T12:11:55.402Z,165
2017-05-18T12:13:06.480Z,165
2017-05-18T12:14:17.495Z,165
2017-05-18T12:15:28.517Z,175
2017-05-18T12:16:39.524Z,185
2017-05-18T12:17:50.563Z,185
2017-05-18T12:19:01.643Z,180
2017-05-18T12:20:12.710Z,175
2017-05-18T12:21:23.725Z,175
2017-05-18T12:22:34.754Z,170
2017-05-18T12:23:45.781Z,155
2017-05-18T12:24:56.787Z,140
2017-05-18T12:26:07.809Z,130
2017-05-18T12:27:18.823Z,115
2017-05-18T12:28:29.849Z,110
2017-05-18T12:29:40.921Z,110
2017-05-18T12:30:52.146Z,115
2017-05-18T12:32:03.160Z,125
2017-05-18T12:33:14.234Z,130
2017-05-18T12:34:25.255Z,130
2017-05-18T12:35:36.326Z,120
2017-05-18T12:36:47.337Z,115
2017-05-18T12:37:58.357Z,115
2017-05-18T12:39:09.387Z,110
2017-05-18T12:40:20.417Z,115
2017-05-18T12:41:31.674Z,110
2017-05-18T12:42:42.680Z,110
2017-05-18T12:43:53.898Z,105
2017-05-18T12:45:04.902Z,105
2017-05-18T12:46:15.930Z,105
2017-05-18T12:47:26.995Z,105
2017-05-18T12:48:38.013Z,105
2017-05-18T12:49:49.038Z,110
2017-05-18T12:51:00.070Z,110
2017-05-18T12:52:11.092Z,115
2017-05-18T12:53:22.164Z,120
2017-05-18T12:54:33.252Z,125
2017-05-18T12:55:44.469Z,125
2017-05-18T12:56:55.484Z,125
2017-05-18T12:58:06.512Z,120
2017-05-18T12:59:17.985Z,115
2017-05-18T13:00:29.010Z,110
2017-05-18T13:01:40.033Z,110
2017-05-18T13:02:51.257Z,115
2017-05-18T13:04:02.285Z,115
2017-05-18T13:05:13.556Z,120
2017-05-18T13:06:24.770Z,125
2017-05-18T13:07:35.805Z,135
2017-05-18T13:08:46.841Z,145
2017-05-18T13:09:57.867Z,160
2017-05-18T13:11:09.084Z,170
2017-05-18T13:12:20.100Z,175
2017-05-18T13:13:31.114Z,180
2017-05-18T13:14:42.135Z,175
2017-05-18T13:15:53.200Z,175
2017-05-18T13:17:04.495Z,170
2017-05-18T13:18:15.502Z,170
2017-05-18T13:19:26.509Z,180
2017-05-18T13:20:37.531Z,190
2017-05-18T13:21:48.601Z,210
2017-05-18T13:22:59.828Z,225
2017-05-18T13:24:11.055Z,240
2017-05-18T13:25:22.081Z,255
2017-05-18T13:26:33.092Z,285
2017-05-18T13:27:44.307Z,310
2017-05-18T13:28:55.325Z,335
2017-05-18T13:30:06.342Z,345
2017-05-18T13:31:17.358Z,340
2017-05-18T13:32:28.422Z,345
2017-05-18T13:33:39.438Z,335
2017-05-18T13:34:50.466Z,325
2017-05-18T13:36:01.493Z,310
2017-05-18T13:37:12.514Z,305
2017-05-18T13:38:23.586Z,310
2017-05-18T13:39:34.861Z,325
2017-05-18T13:40:45.883Z,340
2017-05-18T13:41:57.102Z,360
2017-05-18T13:43:08.118Z,385
2017-05-18T13:44:19.190Z,410
2017-05-18T13:45:30.194Z,440
2017-05-18T13:46:41.215Z,475
2017-05-18T13:47:52.231Z,475
2017-05-18T13:49:03.454Z,475
2017-05-18T13:50:14.470Z,480
2017-05-18T13:51:25.681Z,495
2017-05-18T13:52:36.702Z,480
2017-05-18T13:53:47.724Z,465
2017-05-18T13:54:58.748Z,440
2017-05-18T13:56:10.014Z,420
2017-05-18T13:57:21.240Z,405
2017-05-18T13:58:32.251Z,390
2017-05-18T13:59:43.271Z,375
2017-05-18T14:00:54.290Z,345
2017-05-18T14:02:05.566Z,295
2017-05-18T14:03:16.581Z,250
2017-05-18T14:04:27.591Z,210
2017-05-18T14:05:38.596Z,185
2017-05-18T14:06:49.617Z,165
2017-05-18T14:08:00.683Z,160
2017-05-18T14:09:11.714Z,175
2017-05-18T14:10:22.928Z,190
2017-05-18T14:11:33.957Z,215
2017-05-18T14:12:44.987Z,235
2017-05-18T14:13:56.051Z,225
2017-05-18T14:15:07.081Z,215
2017-05-18T14:16:18.306Z,190
2017-05-18T14:17:29.315Z,150
2017-05-18T14:18:40.345Z,120
2017-05-18T14:19:51.420Z,105
2017-05-18T14:21:02.449Z,110
2017-05-18T14:22:13.467Z,125
2017-05-18T14:23:24.493Z,145
2017-05-18T14:24:35.529Z,185
2017-05-18T14:25:46.591Z,200
2017-05-18T14:26:57.614Z,200
2017-05-18T14:28:08.622Z,205
2017-05-18T14:29:19.642Z,205
2017-05-18T14:30:30.664Z,205
2017-05-18T14:31:41.736Z,205
2017-05-18T14:32:52.765Z,195
2017-05-18T14:34:03.782Z,195
2017-05-18T14:35:14.820Z,195
2017-05-18T14:36:25.831Z,210
2017-05-18T14:37:36.932Z,220
2017-05-18T14:38:48.161Z,230
2017-05-18T14:39:59.177Z,250
2017-05-18T14:41:10.220Z,270
2017-05-18T14:42:21.239Z,285
2017-05-18T14:43:32.313Z,295
2017-05-18T14:44:43.331Z,305
2017-05-18T14:45:54.348Z,305
2017-05-18T14:47:05.373Z,295
2017-05-18T14:48:16.400Z,290
2017-05-18T14:49:27.464Z,290
2017-05-18T14:50:38.495Z,280
2017-05-18T14:51:49.518Z,290
2017-05-18T14:53:00.607Z,295
2017-05-18T14:54:11.631Z,300
2017-05-18T14:55:22.706Z,305
2017-05-18T14:56:33.716Z,300
2017-05-18T14:57:44.735Z,290
2017-05-18T14:58:55.742Z,285
2017-05-18T15:00:06.742Z,285
2017-05-18T15:01:17.809Z,290
2017-05-18T15:02:28.829Z,285
2017-05-18T15:03:40.306Z,280
2017-05-18T15:04:51.331Z,265
2017-05-18T15:06:02.549Z,265
2017-05-18T15:07:13.609Z,285
2017-05-18T15:08:24.827Z,300
2017-05-18T15:09:35.856Z,305
2017-05-18T15:10:46.882Z,295
2017-05-18T15:11:57.892Z,280
2017-05-18T15:13:09.158Z,275
2017-05-18T15:14:20.183Z,255
2017-05-18T15:15:31.205Z,240
2017-05-18T15:16:42.229Z,225
2017-05-18T15:17:53.439Z,235
2017-05-18T15:19:04.514Z,245
2017-05-18T15:20:15.552Z,250
2017-05-18T15:21:26.573Z,270
2017-05-18T15:22:37.790Z,280
2017-05-18T15:23:48.837Z,275
2017-05-18T15:24:59.914Z,270
2017-05-18T15:26:10.932Z,260
2017-05-18T15:27:21.951Z,250
2017-05-18T15:28:32.956Z,245
2017-05-18T15:29:44.181Z,235
2017-05-18T15:30:55.203Z,220
2017-05-18T15:32:06.679Z,215
2017-05-18T15:33:17.910Z,205
2017-05-18T15:34:28.944Z,200
2017-05-18T15:35:40.022Z,200
2017-05-18T15:36:51.045Z,205
2017-05-18T15:38:02.071Z,210
2017-05-18T15:39:13.087Z,225
2017-05-18T15:40:24.107Z,240
2017-05-18T15:41:35.190Z,255
2017-05-18T15:42:46.421Z,275
2017-05-18T15:43:57.445Z,280
2017-05-18T15:45:08.463Z,290
2017-05-18T15:46:19.487Z,285
2017-05-18T15:47:30.761Z,280
2017-05-18T15:48:41.794Z,275
2017-05-18T15:49:53.024Z,275
2017-05-18T15:51:04.048Z,290
2017-05-18T15:52:15.082Z,300
2017-05-18T15:53:26.156Z,295
2017-05-18T15:54:37.177Z,295
2017-05-18T15:55:48.211Z,295
2017-05-18T15:56:59.236Z,275
2017-05-18T15:58:10.457Z,255
2017-05-18T15:59:21.523Z,235
2017-05-18T16:00:32.540Z,205
2017-05-18T16:01:43.569Z,200
2017-05-18T16:02:54.661Z,200
2017-05-18T16:04:05.897Z,200
2017-05-18T16:05:17.119Z,205
2017-05-18T16:06:28.142Z,210
2017-05-18T16:07:39.163Z,210
2017-05-18T16:08:50.380Z,210
2017-05-18T16:10:01.656Z,215
2017-05-18T16:11:12.674Z,215
2017-05-18T16:12:23.899Z,225
2017-05-18T16:13:34.923Z,225
2017-05-18T16:14:46.145Z,215
2017-05-18T16:15:57.429Z,210
2017-05-18T16:17:08.446Z,205
2017-05-18T16:18:19.672Z,210
2017-05-18T16:19:30.700Z,205
2017-05-18T16:20:41.714Z,210
2017-05-18T16:21:52.773Z,205
2017-05-18T16:23:03.840Z,205
2017-05-18T16:24:14.859Z,200
2017-05-18T16:25:26.489Z,195
2017-05-18T16:26:37.508Z,190
2017-05-18T16:27:48.633Z,180
2017-05-18T16:28:59.659Z,180
2017-05-18T16:30:10.688Z,180
2017-05-18T16:31:21.696Z,180
2017-05-18T16:32:32.704Z,185